Cape Flattery, Washington
Current Conditions -  °F | °C
As of 4:50 AM on Monday 20 Oct 2014 (Local Time) from KUIL Reporting Station
Overcast Overcast  
Wind Chill: 55°   Ceiling: 900
Heat Index: 55°   Visibility: 7mi
Dew Point: 55°   Wind: 3mph
Humidity: 100%   Direction: NA
Pressure: 29.65"   Gusts: NA
Location:  48.3685°N, 124.623°W
Report Text: KUIL 201150Z AUTO VRB03KT 7SM BKN009 OVC017 13/13 A2965 RMK AO2 RAB1056E07B17E26 CIG 007V013 P0001
Loading
Personal Weather Stations






























Interactive Weather Map New forecast layout! Learn more

10-Day Weather Forecast

Advertisements
Track Severe Weather on mobile